Time;durP1;ratioP1;P1;durP2;ratioP2;P2;SDS_P1;SDS_P2;PMS_P1;PMS_P2;Temp;Humidity;BMP_temperature;BMP_pressure;BME280_temperature;BME280_humidity;BME280_pressure;Samples;Min_cycle;Max_cycle;Signal;HPM_P1;HPM_P2
2022/09/22 00:00:11;;;;;;;;;;;;;;;-145.50;100.00;65435.88;5004261;28;19979;-62
2022/09/22 00:02:38;;;;;;;;;;;;;;;-145.50;100.00;65435.88;5015869;28;20002;-61
2022/09/22 00:05:04;;;;;;;;;;;;;;;-145.50;100.00;65435.88;5027506;28;19921;-62
2022/09/22 00:07:30;;;;;;;;;;;;;;;-145.50;100.00;65435.88;5020042;28;20379;-61
2022/09/22 00:09:57;;;;;;;;;;;;;;;-145.50;100.00;65435.88;5025052;28;20261;-62
2022/09/22 00:12:23;;;;;;;;;;;;;;;-145.50;100.00;65435.88;5023077;28;20423;-62
2022/09/22 00:14:50;;;;;;;;;;;;;;;-145.50;100.00;65435.88;5016653;28;19924;-62
2022/09/22 00:17:16;;;;;;;;;;;;;;;-145.50;100.00;65435.88;5026711;28;19925;-62
2022/09/22 00:19:43;;;;;;;;;;;;;;;-145.50;100.00;65435.88;5022213;28;19925;-62
2022/09/22 00:22:09;;;;;;;;;;;;;;;-145.50;100.00;65435.88;5034525;28;20538;-62
2022/09/22 00:24:35;;;;;;;;;;;;;;;-145.50;100.00;65435.88;5024480;28;20372;-62
2022/09/22 00:27:01;;;;;;;;;;;;;;;-145.50;100.00;65435.88;5029891;28;19925;-62
2022/09/22 00:29:29;;;;;;;;;;;;;;;-145.50;100.00;65435.88;5022792;28;19975;-62
2022/09/22 00:31:55;;;;;;;;;;;;;;;-145.50;100.00;65435.88;5020549;28;19921;-61
2022/09/22 00:34:22;;;;;;;;;;;;;;;-145.50;100.00;65435.88;5028449;28;19948;-61
2022/09/22 00:36:49;;;;;;;;;;;;;;;-145.50;100.00;65435.88;5014992;28;20249;-60
2022/09/22 00:39:16;;;;;;;;;;;;;;;-145.50;100.00;65435.88;5023572;28;20423;-60
2022/09/22 00:41:44;;;;;;;;;;;;;;;-145.50;100.00;65435.88;5018392;28;19932;-61
2022/09/22 00:44:23;;;;;;;;;;;;;;;-145.50;100.00;65435.88;5023654;28;20313;-62
2022/09/22 00:46:55;;;;;;;;;;;;;;;-145.50;100.00;65435.88;5023892;28;20318;-62
2022/09/22 00:49:24;;;;;;;;;;;;;;;-145.50;100.00;65435.88;5018015;28;19960;-62
2022/09/22 00:51:50;;;;;;;;;;;;;;;-145.50;100.00;65435.88;5026855;28;19925;-61
2022/09/22 00:54:17;;;;;;;;;;;;;;;-145.50;100.00;65435.88;5023359;28;19974;-62
2022/09/22 00:56:51;;;;;;;;;;;;;;;-145.50;100.00;65435.88;4998759;28;19973;-62
2022/09/22 00:59:20;;;;;;;;;;;;;;;-145.50;100.00;65435.88;5015603;28;20182;-64
2022/09/22 01:01:47;;;;;;;;;;;;;;;-145.50;100.00;65435.88;5020452;28;19921;-60
2022/09/22 01:04:16;;;;;;;;;;;;;;;-145.50;100.00;65435.88;5006332;28;19976;-57
2022/09/22 01:06:42;;;;;;;;;;;;;;;-145.50;100.00;65435.88;5024791;28;19928;-60
2022/09/22 01:09:09;;;;;;;;;;;;;;;-145.50;100.00;65435.88;5027525;28;19975;-60
2022/09/22 01:11:36;;;;;;;;;;;;;;;-145.50;100.00;65435.88;5018844;28;19966;-61
2022/09/22 01:14:38;;;;;;;;;;;;;;;-145.50;100.00;65435.88;5024782;28;19932;-60
2022/09/22 01:17:12;;;;;;;;;;;;;;;-145.50;100.00;65435.88;4947757;28;20012;-57
2022/09/22 01:19:57;;;;;;;;;;;;;;;-145.50;100.00;65435.88;4953493;28;19988;-59
2022/09/22 01:22:37;;;;;;;;;;;;;;;-145.50;100.00;65435.88;4951172;28;19922;-61
2022/09/22 01:25:22;;;;;;;;;;;;;;;-145.50;100.00;65435.88;4961519;28;19985;-60
2022/09/22 01:28:03;;;;;;;;;;;;;;;-145.50;100.00;65435.88;4956152;28;19965;-61
2022/09/22 01:30:34;;;;;;;;;;;;;;;-145.50;100.00;65435.88;4960527;28;20247;-61
2022/09/22 01:33:17;;;;;;;;;;;;;;;-145.50;100.00;65435.88;4962286;28;20421;-61
2022/09/22 01:35:45;;;;;;;;;;;;;;;-145.50;100.00;65435.88;4946798;28;20236;-62
2022/09/22 01:38:16;;;;;;;;;;;;;;;-145.50;100.00;65435.88;4961005;28;19932;-61
2022/09/22 01:40:47;;;;;;;;;;;;;;;-145.50;100.00;65435.88;4955094;28;19945;-61
2022/09/22 01:43:22;;;;;;;;;;;;;;;-145.50;100.00;65435.88;4963755;28;20493;-62
2022/09/22 01:45:49;;;;;;;;;;;;;;;-145.50;100.00;65435.88;4957982;28;19926;-61
2022/09/22 01:48:18;;;;;;;;;;;;;;;-145.50;100.00;65435.88;4957100;28;19926;-61
2022/09/22 01:50:49;;;;;;;;;;;;;;;-145.50;100.00;65435.88;4967870;28;19925;-61
2022/09/22 01:53:18;;;;;;;;;;;;;;;-145.50;100.00;65435.88;5025181;28;19925;-60
2022/09/22 01:55:47;;;;;;;;;;;;;;;-145.50;100.00;65435.88;5029331;28;19925;-62
2022/09/22 01:58:18;;;;;;;;;;;;;;;-145.50;100.00;65435.88;5012910;28;19921;-59
2022/09/22 02:00:48;;;;;;;;;;;;;;;-145.50;100.00;65435.88;5025032;28;20052;-59
2022/09/22 02:03:18;;;;;;;;;;;;;;;-145.50;100.00;65435.88;5015482;28;19933;-61
2022/09/22 02:05:49;;;;;;;;;;;;;;;-145.50;100.00;65435.88;5024383;28;19925;-62
2022/09/22 02:08:19;;;;;;;;;;;;;;;-145.50;100.00;65435.88;5029268;28;19960;-62
2022/09/22 02:10:46;;;;;;;;;;;;;;;-145.50;100.00;65435.88;5029091;28;19978;-61
2022/09/22 02:13:13;;;;;;;;;;;;;;;-145.50;100.00;65435.88;5027860;28;19925;-63
2022/09/22 02:18:31;;;;;;;;;;;;;;;-145.50;100.00;65435.88;5020103;28;20212;-62
2022/09/22 02:20:57;;;;;;;;;;;;;;;-145.50;100.00;65435.88;5021935;28;19920;-61
2022/09/22 02:23:23;;;;;;;;;;;;;;;-145.50;100.00;65435.88;5026200;28;19921;-62
2022/09/22 02:25:50;;;;;;;;;;;;;;;-145.50;100.00;65435.88;5023864;28;20310;-62
2022/09/22 02:28:19;;;;;;;;;;;;;;;-145.50;100.00;65435.88;5032821;28;19982;-62
2022/09/22 02:30:47;;;;;;;;;;;;;;;-145.50;100.00;65435.88;5023415;28;19929;-61
2022/09/22 02:33:37;;;;;;;;;;;;;;;-145.50;100.00;65435.88;5024304;28;20454;-62
2022/09/22 02:36:19;;;;;;;;;;;;;;;-145.50;100.00;65435.88;5027390;28;19924;-61
2022/09/22 02:38:57;;;;;;;;;;;;;;;-145.50;100.00;65435.88;5031501;28;19925;-61
2022/09/22 02:41:35;;;;;;;;;;;;;;;-145.50;100.00;65435.88;5040329;28;20452;-61
2022/09/22 02:44:07;;;;;;;;;;;;;;;-145.50;100.00;65435.88;5017672;28;19929;-59
2022/09/22 02:46:41;;;;;;;;;;;;;;;-145.50;100.00;65435.88;5038889;28;19928;-62
2022/09/22 02:49:10;;;;;;;;;;;;;;;-145.50;100.00;65435.88;5031961;28;19921;-61
2022/09/22 02:51:36;;;;;;;;;;;;;;;-145.50;100.00;65435.88;5030564;28;19936;-61
2022/09/22 02:54:03;;;;;;;;;;;;;;;-145.50;100.00;65435.88;5037524;28;20308;-61
2022/09/22 02:56:29;;;;;;;;;;;;;;;-145.50;100.00;65435.88;5031744;28;19921;-61
2022/09/22 02:58:56;;;;;;;;;;;;;;;-145.50;100.00;65435.88;5026411;28;19971;-61
2022/09/22 03:01:24;;;;;;;;;;;;;;;-145.50;100.00;65435.88;5021417;28;19951;-61
2022/09/22 03:03:50;;;;;;;;;;;;;;;-145.50;100.00;65435.88;5037179;28;20357;-61
2022/09/22 03:06:17;;;;;;;;;;;;;;;-145.50;100.00;65435.88;5027407;28;20342;-61
2022/09/22 03:08:43;;;;;;;;;;;;;;;-145.50;100.00;65435.88;5012796;28;20376;-61
2022/09/22 03:11:10;;;;;;;;;;;;;;;-145.50;100.00;65435.88;5018536;28;19970;-61
2022/09/22 03:13:36;;;;;;;;;;;;;;;-145.50;100.00;65435.88;5029628;28;20588;-61
2022/09/22 03:16:02;;;;;;;;;;;;;;;-145.50;100.00;65435.88;5027298;28;19929;-61
2022/09/22 03:18:29;;;;;;;;;;;;;;;-145.50;100.00;65435.88;5026662;28;19956;-61
2022/09/22 03:20:55;;;;;;;;;;;;;;;-145.50;100.00;65435.88;5032595;28;19924;-61
2022/09/22 03:23:21;;;;;;;;;;;;;;;-145.50;100.00;65435.88;5023177;28;20072;-61
2022/09/22 03:25:47;;;;;;;;;;;;;;;-145.50;100.00;65435.88;5032519;28;19968;-62
2022/09/22 03:28:14;;;;;;;;;;;;;;;-145.50;100.00;65435.88;5028365;28;19987;-61
2022/09/22 03:30:40;;;;;;;;;;;;;;;-145.50;100.00;65435.88;5036537;28;19978;-61
2022/09/22 03:33:06;;;;;;;;;;;;;;;-145.50;100.00;65435.88;5020243;28;20052;-61
2022/09/22 03:35:33;;;;;;;;;;;;;;;-145.50;100.00;65435.88;5026178;28;19924;-61
2022/09/22 03:37:59;;;;;;;;;;;;;;;-145.50;100.00;65435.88;5026915;28;19979;-62
2022/09/22 03:40:25;;;;;;;;;;;;;;;-145.50;100.00;65435.88;5016369;28;20268;-62
2022/09/22 03:42:51;;;;;;;;;;;;;;;-145.50;100.00;65435.88;5028073;28;19925;-61
2022/09/22 03:45:18;;;;;;;;;;;;;;;-145.50;100.00;65435.88;5021613;28;19921;-61
2022/09/22 03:47:45;;;;;;;;;;;;;;;-145.50;100.00;65435.88;5044052;28;19967;-61
2022/09/22 03:50:12;;;;;;;;;;;;;;;-145.50;100.00;65435.88;5021986;28;20348;-60
2022/09/22 03:52:41;;;;;;;;;;;;;;;-145.50;100.00;65435.88;5026243;28;20142;-61
2022/09/22 03:55:08;;;;;;;;;;;;;;;-145.50;100.00;65435.88;5022960;28;19921;-61
2022/09/22 03:57:34;;;;;;;;;;;;;;;-145.50;100.00;65435.88;5025736;28;19929;-60
2022/09/22 04:00:01;;;;;;;;;;;;;;;-145.50;100.00;65435.88;5026353;28;19945;-61
2022/09/22 04:02:28;;;;;;;;;;;;;;;-145.50;100.00;65435.88;5022742;28;19960;-61
2022/09/22 04:04:54;;;;;;;;;;;;;;;-145.50;100.00;65435.88;5030658;28;19921;-61
2022/09/22 04:07:21;;;;;;;;;;;;;;;-145.50;100.00;65435.88;5022536;28;19925;-59
2022/09/22 04:09:47;;;;;;;;;;;;;;;-145.50;100.00;65435.88;5029664;28;19966;-62
2022/09/22 04:12:13;;;;;;;;;;;;;;;-145.50;100.00;65435.88;5022239;28;19921;-62
2022/09/22 04:14:40;;;;;;;;;;;;;;;-145.50;100.00;65435.88;5020152;28;19921;-62
2022/09/22 04:17:06;;;;;;;;;;;;;;;-145.50;100.00;65435.88;5026699;28;19925;-62
2022/09/22 04:19:34;;;;;;;;;;;;;;;-145.50;100.00;65435.88;5020074;28;20360;-62
2022/09/22 04:22:02;;;;;;;;;;;;;;;-145.50;100.00;65435.88;5004493;28;19921;-63
2022/09/22 04:24:28;;;;;;;;;;;;;;;-145.50;100.00;65435.88;5023977;28;20428;-61
2022/09/22 04:26:54;;;;;;;;;;;;;;;-145.50;100.00;65435.88;5030553;28;19975;-60
2022/09/22 04:29:40;;;;;;;;;;;;;;;-145.50;100.00;65435.88;5027161;28;20027;-64
2022/09/22 04:32:07;;;;;;;;;;;;;;;-145.50;100.00;65435.88;5026803;28;20376;-62
2022/09/22 04:34:33;;;;;;;;;;;;;;;-145.50;100.00;65435.88;5020767;28;20328;-60
2022/09/22 04:36:59;;;;;;;;;;;;;;;-145.50;100.00;65435.88;5024717;28;20652;-61
2022/09/22 04:39:27;;;;;;;;;;;;;;;-145.50;100.00;65435.88;5032785;28;20356;-62
2022/09/22 04:41:54;;;;;;;;;;;;;;;-145.50;100.00;65435.88;5036310;28;20364;-61
2022/09/22 04:44:20;;;;;;;;;;;;;;;-145.50;100.00;65435.88;5032985;28;19967;-61
2022/09/22 04:46:48;;;;;;;;;;;;;;;-145.50;100.00;65435.88;5030095;28;20492;-61
2022/09/22 04:49:15;;;;;;;;;;;;;;;-145.50;100.00;65435.88;5016893;28;19925;-61
2022/09/22 04:51:41;;;;;;;;;;;;;;;-145.50;100.00;65435.88;5026588;28;20666;-62
2022/09/22 04:54:08;;;;;;;;;;;;;;;-145.50;100.00;65435.88;5027655;28;19929;-60
2022/09/22 04:56:34;;;;;;;;;;;;;;;-145.50;100.00;65435.88;5031873;28;20077;-61
2022/09/22 04:59:01;;;;;;;;;;;;;;;-145.50;100.00;65435.88;5020790;28;20443;-61
2022/09/22 05:01:27;;;;;;;;;;;;;;;-145.50;100.00;65435.88;5035164;28;20518;-59
2022/09/22 05:03:53;;;;;;;;;;;;;;;-145.50;100.00;65435.88;5027953;28;20388;-61
2022/09/22 05:06:20;;;;;;;;;;;;;;;-145.50;100.00;65435.88;5021568;28;19929;-62
2022/09/22 05:08:46;;;;;;;;;;;;;;;-145.50;100.00;65435.88;5037692;28;20430;-62
2022/09/22 05:11:13;;;;;;;;;;;;;;;-145.50;100.00;65435.88;5021787;28;20377;-61
2022/09/22 05:13:39;;;;;;;;;;;;;;;-145.50;100.00;65435.88;5029837;28;20339;-60
2022/09/22 05:16:07;;;;;;;;;;;;;;;-145.50;100.00;65435.88;5020728;28;19939;-61
2022/09/22 05:18:33;;;;;;;;;;;;;;;-145.50;100.00;65435.88;5028235;28;19925;-61
2022/09/22 05:21:00;;;;;;;;;;;;;;;-145.50;100.00;65435.88;5033493;28;20454;-61
2022/09/22 05:23:26;;;;;;;;;;;;;;;-145.50;100.00;65435.88;5017937;28;19999;-61
2022/09/22 05:25:53;;;;;;;;;;;;;;;-145.50;100.00;65435.88;5030088;28;19928;-62
2022/09/22 05:28:21;;;;;;;;;;;;;;;-145.50;100.00;65435.88;5013591;28;19925;-61
2022/09/22 05:30:49;;;;;;;;;;;;;;;-145.50;100.00;65435.88;5028393;28;20549;-60
2022/09/22 05:33:15;;;;;;;;;;;;;;;-145.50;100.00;65435.88;5015498;28;19993;-62
2022/09/22 05:35:41;;;;;;;;;;;;;;;-145.50;100.00;65435.88;5037783;28;19925;-62
2022/09/22 05:38:08;;;;;;;;;;;;;;;-145.50;100.00;65435.88;5035541;28;19925;-61
2022/09/22 05:40:34;;;;;;;;;;;;;;;-145.50;100.00;65435.88;5017929;28;19971;-61
2022/09/22 05:43:00;;;;;;;;;;;;;;;-145.50;100.00;65435.88;5026166;28;20016;-61
2022/09/22 05:45:27;;;;;;;;;;;;;;;-145.50;100.00;65435.88;5014959;28;19933;-59
2022/09/22 05:47:53;;;;;;;;;;;;;;;-145.50;100.00;65435.88;5020892;28;20395;-58
2022/09/22 05:50:20;;;;;;;;;;;;;;;-145.50;100.00;65435.88;5023770;28;20343;-61
2022/09/22 05:52:46;;;;;;;;;;;;;;;-145.50;100.00;65435.88;5026629;28;19930;-60
2022/09/22 05:55:13;;;;;;;;;;;;;;;-145.50;100.00;65435.88;5027984;28;19995;-63
2022/09/22 05:57:39;;;;;;;;;;;;;;;-145.50;100.00;65435.88;5021232;28;20994;-61
2022/09/22 06:00:06;;;;;;;;;;;;;;;-145.50;100.00;65435.88;5022272;28;19955;-62
2022/09/22 06:02:33;;;;;;;;;;;;;;;-145.50;100.00;65435.88;5024579;28;19940;-62
2022/09/22 06:04:59;;;;;;;;;;;;;;;-145.50;100.00;65435.88;5026614;28;19929;-62
2022/09/22 06:07:26;;;;;;;;;;;;;;;-145.50;100.00;65435.88;5031165;28;19928;-60
2022/09/22 06:09:52;;;;;;;;;;;;;;;-145.50;100.00;65435.88;5028063;28;20499;-62
2022/09/22 06:12:19;;;;;;;;;;;;;;;-145.50;100.00;65435.88;5034642;28;20175;-62
2022/09/22 06:14:45;;;;;;;;;;;;;;;-145.50;100.00;65435.88;5022501;28;19995;-61
2022/09/22 06:17:11;;;;;;;;;;;;;;;-145.50;100.00;65435.88;5026878;28;19933;-62
2022/09/22 06:19:38;;;;;;;;;;;;;;;-145.50;100.00;65435.88;5022640;28;20621;-62
2022/09/22 06:22:04;;;;;;;;;;;;;;;-145.50;100.00;65435.88;5022756;28;19925;-61
2022/09/22 06:24:31;;;;;;;;;;;;;;;-145.50;100.00;65435.88;5029597;28;20307;-61
2022/09/22 06:26:57;;;;;;;;;;;;;;;-145.50;100.00;65435.88;5024081;28;19971;-61
2022/09/22 06:29:24;;;;;;;;;;;;;;;-145.50;100.00;65435.88;5032420;28;19924;-62
2022/09/22 06:31:51;;;;;;;;;;;;;;;-145.50;100.00;65435.88;5026428;28;19976;-62
2022/09/22 06:34:17;;;;;;;;;;;;;;;-145.50;100.00;65435.88;5031444;28;19937;-63
2022/09/22 06:36:47;;;;;;;;;;;;;;;-145.50;100.00;65435.88;5035717;28;19979;-61
2022/09/22 06:39:13;;;;;;;;;;;;;;;-145.50;100.00;65435.88;5034669;28;20510;-63
2022/09/22 06:41:40;;;;;;;;;;;;;;;-145.50;100.00;65435.88;5017984;28;19925;-63
2022/09/22 06:44:06;;;;;;;;;;;;;;;-145.50;100.00;65435.88;5026706;28;19921;-63
2022/09/22 06:46:33;;;;;;;;;;;;;;;-145.50;100.00;65435.88;5032529;28;19925;-62
2022/09/22 06:48:59;;;;;;;;;;;;;;;-145.50;100.00;65435.88;5021751;28;19929;-63
2022/09/22 06:51:27;;;;;;;;;;;;;;;-145.50;100.00;65435.88;5026718;28;19975;-63
2022/09/22 06:53:54;;;;;;;;;;;;;;;-145.50;100.00;65435.88;5026093;28;19929;-62
2022/09/22 06:56:22;;;;;;;;;;;;;;;-145.50;100.00;65435.88;5033606;28;19943;-63
2022/09/22 06:58:48;;;;;;;;;;;;;;;-145.50;100.00;65435.88;5027952;28;20373;-63
2022/09/22 07:01:34;;;;;;;;;;;;;;;-145.50;100.00;65435.88;5033696;28;19929;-63
2022/09/22 07:04:00;;;;;;;;;;;;;;;-145.50;100.00;65435.88;5026485;28;20020;-63
2022/09/22 07:06:27;;;;;;;;;;;;;;;-145.50;100.00;65435.88;5023198;28;19936;-62
2022/09/22 07:08:53;;;;;;;;;;;;;;;-145.50;100.00;65435.88;5012127;28;19987;-63
2022/09/22 07:11:22;;;;;;;;;;;;;;;-145.50;100.00;65435.88;5029779;28;19928;-64
2022/09/22 07:13:49;;;;;;;;;;;;;;;-145.50;100.00;65435.88;5036112;28;19928;-63
2022/09/22 07:16:16;;;;;;;;;;;;;;;-145.50;100.00;65435.88;5015344;28;19925;-62
2022/09/22 07:18:47;;;;;;;;;;;;;;;-145.50;100.00;65435.88;5025076;28;19931;-63
2022/09/22 07:21:15;;;;;;;;;;;;;;;-145.50;100.00;65435.88;5023185;28;19933;-62
2022/09/22 07:23:43;;;;;;;;;;;;;;;-145.50;100.00;65435.88;5024786;28;19921;-63
2022/09/22 07:26:12;;;;;;;;;;;;;;;-145.50;100.00;65435.88;5032541;28;20440;-63
2022/09/22 07:28:38;;;;;;;;;;;;;;;-145.50;100.00;65435.88;5030961;28;19974;-62
2022/09/22 07:31:09;;;;;;;;;;;;;;;-145.50;100.00;65435.88;5028885;28;19925;-63
2022/09/22 07:33:36;;;;;;;;;;;;;;;-145.50;100.00;65435.88;5017083;28;20014;-62
2022/09/22 07:36:07;;;;;;;;;;;;;;;-145.50;100.00;65435.88;5028363;28;20378;-63
2022/09/22 07:38:35;;;;;;;;;;;;;;;-145.50;100.00;65435.88;5026843;28;20016;-63
2022/09/22 07:41:04;;;;;;;;;;;;;;;-145.50;100.00;65435.88;5027753;28;20373;-63
2022/09/22 07:43:30;;;;;;;;;;;;;;;-145.50;100.00;65435.88;5029058;28;19965;-63
2022/09/22 07:45:56;;;;;;;;;;;;;;;-145.50;100.00;65435.88;5016817;28;19925;-64
2022/09/22 07:48:45;;;;;;;;;;;;;;;-145.50;100.00;65435.88;5024365;28;19980;-62
2022/09/22 07:51:23;;;;;;;;;;;;;;;-145.50;100.00;65435.88;5018978;28;19921;-62
2022/09/22 07:54:01;;;;;;;;;;;;;;;-145.50;100.00;65435.88;5019880;28;19975;-63
2022/09/22 07:56:29;;;;;;;;;;;;;;;-145.50;100.00;65435.88;5021360;28;19925;-63
2022/09/22 07:58:55;;;;;;;;;;;;;;;-145.50;100.00;65435.88;5025824;28;19951;-63
2022/09/22 08:01:22;;;;;;;;;;;;;;;-145.50;100.00;65435.88;5021858;28;19921;-63
2022/09/22 08:03:49;;;;;;;;;;;;;;;-145.50;100.00;65435.88;5031193;28;19921;-62
2022/09/22 08:06:18;;;;;;;;;;;;;;;-145.50;100.00;65435.88;5029210;28;19976;-64
2022/09/22 08:08:52;;;;;;;;;;;;;;;-145.50;100.00;65435.88;5030496;28;19967;-63
2022/09/22 08:11:19;;;;;;;;;;;;;;;-145.50;100.00;65435.88;5022573;28;20569;-64
2022/09/22 08:13:51;;;;;;;;;;;;;;;-145.50;100.00;65435.88;5019041;28;19921;-62
2022/09/22 08:16:18;;;;;;;;;;;;;;;-145.50;100.00;65435.88;5028383;28;20667;-63
2022/09/22 08:18:48;;;;;;;;;;;;;;;-145.50;100.00;65435.88;5021849;28;20391;-63
2022/09/22 08:21:18;;;;;;;;;;;;;;;-145.50;100.00;65435.88;5025772;28;19924;-63
2022/09/22 08:23:45;;;;;;;;;;;;;;;-145.50;100.00;65435.88;5025384;28;20279;-63
2022/09/22 08:26:11;;;;;;;;;;;;;;;-145.50;100.00;65435.88;5015382;28;20429;-63
2022/09/22 08:28:37;;;;;;;;;;;;;;;-145.50;100.00;65435.88;5037373;28;19968;-64
2022/09/22 08:31:10;;;;;;;;;;;;;;;-145.50;100.00;65435.88;5029147;28;19928;-63
2022/09/22 08:33:39;;;;;;;;;;;;;;;-145.50;100.00;65435.88;5029690;28;19921;-62
2022/09/22 08:36:06;;;;;;;;;;;;;;;-145.50;100.00;65435.88;5016562;28;19932;-63
2022/09/22 08:38:32;;;;;;;;;;;;;;;-145.50;100.00;65435.88;5027221;28;19975;-63
2022/09/22 08:41:13;;;;;;;;;;;;;;;-145.50;100.00;65435.88;5026296;28;20265;-63
2022/09/22 08:43:45;;;;;;;;;;;;;;;-145.50;100.00;65435.88;5030143;28;19925;-63
2022/09/22 08:46:12;;;;;;;;;;;;;;;-145.50;100.00;65435.88;5024943;28;19932;-63
2022/09/22 08:54:15;;;;;;;;;;;;;;;-145.50;100.00;65435.88;5020059;28;20398;-62
2022/09/22 08:56:45;;;;;;;;;;;;;;;-145.50;100.00;65435.88;5025773;28;19925;-63
2022/09/22 08:59:21;;;;;;;;;;;;;;;-145.50;100.00;65435.88;5008635;28;19996;-62
2022/09/22 09:02:01;;;;;;;;;;;;;;;-145.50;100.00;65435.88;5029698;28;20381;-63
2022/09/22 09:04:41;;;;;;;;;;;;;;;-145.50;100.00;65435.88;5018878;28;19921;-63
2022/09/22 09:07:34;;;;;;;;;;;;;;;-145.50;100.00;65435.88;4999323;28;19978;-63
2022/09/22 09:10:09;;;;;;;;;;;;;;;-145.50;100.00;65435.88;5025291;28;19976;-62
2022/09/22 09:12:54;;;;;;;;;;;;;;;-145.50;100.00;65435.88;5032393;28;20361;-63
2022/09/22 09:15:26;;;;;;;;;;;;;;;-145.50;100.00;65435.88;5033524;28;19972;-62
2022/09/22 09:17:54;;;;;;;;;;;;;;;-145.50;100.00;65435.88;5034758;28;20329;-63
2022/09/22 09:20:20;;;;;;;;;;;;;;;-145.50;100.00;65435.88;5020841;28;19979;-63
2022/09/22 09:22:54;;;;;;;;;;;;;;;-145.50;100.00;65435.88;5017226;28;19922;-63
2022/09/22 09:25:21;;;;;;;;;;;;;;;-145.50;100.00;65435.88;5026321;28;20553;-63
2022/09/22 09:27:52;;;;;;;;;;;;;;;-145.50;100.00;65435.88;5020257;28;19921;-63
2022/09/22 09:30:20;;;;;;;;;;;;;;;-145.50;100.00;65435.88;5038653;28;19924;-63
2022/09/22 09:32:49;;;;;;;;;;;;;;;-145.50;100.00;65435.88;5015925;28;19924;-63
2022/09/22 09:35:17;;;;;;;;;;;;;;;-145.50;100.00;65435.88;5027338;28;19964;-64
2022/09/22 09:37:45;;;;;;;;;;;;;;;-145.50;100.00;65435.88;5023158;28;19929;-63
2022/09/22 09:40:14;;;;;;;;;;;;;;;-145.50;100.00;65435.88;5022110;28;19982;-63
2022/09/22 09:42:41;;;;;;;;;;;;;;;-145.50;100.00;65435.88;5026288;28;20488;-64
2022/09/22 09:45:12;;;;;;;;;;;;;;;-145.50;100.00;65435.88;5026059;28;19927;-63
2022/09/22 09:48:00;;;;;;;;;;;;;;;-145.50;100.00;65435.88;5022804;28;19959;-64
2022/09/22 09:50:30;;;;;;;;;;;;;;;-145.50;100.00;65435.88;5017877;28;20407;-64
2022/09/22 09:52:58;;;;;;;;;;;;;;;-145.50;100.00;65435.88;5028948;28;19925;-65
2022/09/22 09:55:25;;;;;;;;;;;;;;;-145.50;100.00;65435.88;5031457;28;20014;-65
2022/09/22 09:58:06;;;;;;;;;;;;;;;-145.50;100.00;65435.88;5025905;28;19921;-64
2022/09/22 10:00:33;;;;;;;;;;;;;;;-145.50;100.00;65435.88;5010122;28;20373;-64
2022/09/22 10:03:03;;;;;;;;;;;;;;;-145.50;100.00;65435.88;5024915;28;19933;-64
2022/09/22 10:05:31;;;;;;;;;;;;;;;-145.50;100.00;65435.88;5015374;28;19925;-64
2022/09/22 10:08:11;;;;;;;;;;;;;;;-145.50;100.00;65435.88;5015862;28;19921;-64
2022/09/22 10:10:40;;;;;;;;;;;;;;;-145.50;100.00;65435.88;5034195;28;20518;-65
2022/09/22 10:13:06;;;;;;;;;;;;;;;-145.50;100.00;65435.88;5019540;28;19921;-64
2022/09/22 10:15:34;;;;;;;;;;;;;;;-145.50;100.00;65435.88;5009875;28;19927;-64
2022/09/22 10:18:00;;;;;;;;;;;;;;;-145.50;100.00;65435.88;5016301;28;20284;-64
2022/09/22 10:20:30;;;;;;;;;;;;;;;-145.50;100.00;65435.88;5026393;28;19987;-65
2022/09/22 10:23:15;;;;;;;;;;;;;;;-145.50;100.00;65435.88;5007787;28;19928;-64
2022/09/22 10:25:42;;;;;;;;;;;;;;;-145.50;100.00;65435.88;5023718;28;19925;-65
2022/09/22 10:28:12;;;;;;;;;;;;;;;-145.50;100.00;65435.88;5021641;28;19925;-64
2022/09/22 10:30:39;;;;;;;;;;;;;;;-145.50;100.00;65435.88;5023638;28;19921;-65
2022/09/22 10:33:09;;;;;;;;;;;;;;;-145.50;100.00;65435.88;5036143;28;19921;-66
2022/09/22 10:35:35;;;;;;;;;;;;;;;-145.50;100.00;65435.88;5019868;28;19982;-64
2022/09/22 10:38:12;;;;;;;;;;;;;;;-145.50;100.00;65435.88;5018803;28;19925;-65
2022/09/22 10:40:40;;;;;;;;;;;;;;;-145.50;100.00;65435.88;5027575;28;19971;-64
2022/09/22 10:43:36;;;;;;;;;;;;;;;-145.50;100.00;65435.88;5029102;28;19920;-64
2022/09/22 10:46:22;;;;;;;;;;;;;;;-145.50;100.00;65435.88;5011597;28;19921;-65
2022/09/22 10:48:53;;;;;;;;;;;;;;;-145.50;100.00;65435.88;5012243;28;20392;-65
2022/09/22 10:51:29;;;;;;;;;;;;;;;-145.50;100.00;65435.88;5031930;28;19925;-65
2022/09/22 10:54:04;;;;;;;;;;;;;;;-145.50;100.00;65435.88;5020551;28;19959;-63
2022/09/22 10:56:45;;;;;;;;;;;;;;;-145.50;100.00;65435.88;5028601;28;19984;-65
2022/09/22 10:59:32;;;;;;;;;;;;;;;-145.50;100.00;65435.88;5024808;28;19925;-65
2022/09/22 11:02:17;;;;;;;;;;;;;;;-145.50;100.00;65435.88;5027988;28;19924;-64
2022/09/22 11:04:54;;;;;;;;;;;;;;;-145.50;100.00;65435.88;5022977;28;19931;-64
2022/09/22 11:13:09;;;;;;;;;;;;;;;-145.50;100.00;65435.88;5036600;28;19928;-64
2022/09/22 11:15:44;;;;;;;;;;;;;;;-145.50;100.00;65435.88;5024109;28;19979;-65
2022/09/22 11:18:17;;;;;;;;;;;;;;;-145.50;100.00;65435.88;5029192;28;20480;-64
2022/09/22 11:20:47;;;;;;;;;;;;;;;-145.50;100.00;65435.88;5024681;28;19929;-64
2022/09/22 11:23:27;;;;;;;;;;;;;;;-145.50;100.00;65435.88;5024404;28;19925;-66
2022/09/22 11:26:00;;;;;;;;;;;;;;;-145.50;100.00;65435.88;5019432;28;20541;-64
2022/09/22 11:28:33;;;;;;;;;;;;;;;-145.50;100.00;65435.88;5027871;28;19925;-65
2022/09/22 11:30:59;;;;;;;;;;;;;;;-145.50;100.00;65435.88;5028303;28;19921;-65
2022/09/22 11:33:38;;;;;;;;;;;;;;;-145.50;100.00;65435.88;5023166;28;19966;-64
2022/09/22 11:36:22;;;;;;;;;;;;;;;-145.50;100.00;65435.88;5025937;28;19928;-65
2022/09/22 11:38:54;;;;;;;;;;;;;;;-145.50;100.00;65435.88;5016127;28;20377;-65
2022/09/22 11:41:28;;;;;;;;;;;;;;;-145.50;100.00;65435.88;5030001;28;20377;-65
2022/09/22 11:44:04;;;;;;;;;;;;;;;-145.50;100.00;65435.88;5018502;28;19933;-65
2022/09/22 11:46:54;;;;;;;;;;;;;;;-145.50;100.00;65435.88;5028197;28;19925;-64
2022/09/22 11:49:39;;;;;;;;;;;;;;;-145.50;100.00;65435.88;5005042;28;19925;-65
2022/09/22 11:52:11;;;;;;;;;;;;;;;-145.50;100.00;65435.88;5022987;28;19929;-64
2022/09/22 11:54:54;;;;;;;;;;;;;;;-145.50;100.00;65435.88;5020991;28;19975;-65
2022/09/22 11:57:28;;;;;;;;;;;;;;;-145.50;100.00;65435.88;5032282;28;20435;-64
2022/09/22 12:00:02;;;;;;;;;;;;;;;-145.50;100.00;65435.88;5037016;28;19929;-63
2022/09/22 12:02:36;;;;;;;;;;;;;;;-145.50;100.00;65435.88;5024592;28;19921;-64
2022/09/22 12:05:17;;;;;;;;;;;;;;;-145.50;100.00;65435.88;5024660;28;20011;-64
2022/09/22 12:07:54;;;;;;;;;;;;;;;-145.50;100.00;65435.88;5027568;28;19976;-65
2022/09/22 12:10:26;;;;;;;;;;;;;;;-145.50;100.00;65435.88;5030577;28;19951;-64
2022/09/22 12:12:55;;;;;;;;;;;;;;;-145.50;100.00;65435.88;5023628;28;19924;-64
2022/09/22 12:15:31;;;;;;;;;;;;;;;-145.50;100.00;65435.88;5039238;28;19971;-64
2022/09/22 12:17:58;;;;;;;;;;;;;;;-145.50;100.00;65435.88;5019270;28;19971;-64
2022/09/22 12:20:24;;;;;;;;;;;;;;;-145.50;100.00;65435.88;5032257;28;19986;-65
2022/09/22 12:22:50;;;;;;;;;;;;;;;-145.50;100.00;65435.88;5026044;28;20444;-65
2022/09/22 12:25:36;;;;;;;;;;;;;;;-145.50;100.00;65435.88;5028367;28;19931;-64
2022/09/22 12:28:15;;;;;;;;;;;;;;;-145.50;100.00;65435.88;5012211;28;19920;-64
2022/09/22 12:30:57;;;;;;;;;;;;;;;-145.50;100.00;65435.88;5024496;28;19951;-64
2022/09/22 12:33:25;;;;;;;;;;;;;;;-145.50;100.00;65435.88;5027955;28;19921;-64
2022/09/22 12:35:53;;;;;;;;;;;;;;;-145.50;100.00;65435.88;5021487;28;19982;-64
2022/09/22 12:38:20;;;;;;;;;;;;;;;-145.50;100.00;65435.88;5032769;28;19927;-65
2022/09/22 12:40:51;;;;;;;;;;;;;;;-145.50;100.00;65435.88;5026071;28;19971;-64
2022/09/22 12:43:21;;;;;;;;;;;;;;;-145.50;100.00;65435.88;5025329;28;19979;-64
2022/09/22 12:45:49;;;;;;;;;;;;;;;-145.50;100.00;65435.88;5014107;28;19920;-64